sensor_id;sensor_type;location;lat;lon;timestamp;pressure;altitude;pressure_sealevel;temperature;humidity
77725;BME280;66892;53.236;6.550;2023-03-08T00:02:43;100017.59;;;-0.64;94.20
77725;BME280;66892;53.236;6.550;2023-03-08T00:05:09;100015.13;;;-0.61;93.92
77725;BME280;66892;53.236;6.550;2023-03-08T00:07:35;100012.53;;;-0.61;93.84
77725;BME280;66892;53.236;6.550;2023-03-08T00:10:02;100020.13;;;-0.67;93.36
77725;BME280;66892;53.236;6.550;2023-03-08T00:12:28;100030.47;;;-0.69;94.32
77725;BME280;66892;53.236;6.550;2023-03-08T00:14:56;100027.13;;;-0.65;93.61
77725;BME280;66892;53.236;6.550;2023-03-08T00:17:22;100028.94;;;-0.62;93.79
77725;BME280;66892;53.236;6.550;2023-03-08T00:19:50;100033.09;;;-0.67;93.45
77725;BME280;66892;53.236;6.550;2023-03-08T00:22:16;100038.03;;;-0.76;92.88
77725;BME280;66892;53.236;6.550;2023-03-08T00:24:42;100028.28;;;-0.85;93.60
77725;BME280;66892;53.236;6.550;2023-03-08T00:27:08;100025.44;;;-0.92;93.70
77725;BME280;66892;53.236;6.550;2023-03-08T00:29:34;100026.25;;;-0.95;93.93
77725;BME280;66892;53.236;6.550;2023-03-08T00:32:02;100024.53;;;-0.94;93.96
77725;BME280;66892;53.236;6.550;2023-03-08T00:34:28;100021.63;;;-1.05;93.35
77725;BME280;66892;53.236;6.550;2023-03-08T00:36:54;100022.09;;;-1.18;93.52
77725;BME280;66892;53.236;6.550;2023-03-08T00:39:20;100015.88;;;-1.23;94.01
77725;BME280;66892;53.236;6.550;2023-03-08T00:41:46;100024.28;;;-1.32;94.12
77725;BME280;66892;53.236;6.550;2023-03-08T00:44:12;100016.28;;;-1.38;94.68
77725;BME280;66892;53.236;6.550;2023-03-08T00:46:38;100012.34;;;-1.25;95.11
77725;BME280;66892;53.236;6.550;2023-03-08T00:49:05;100008.81;;;-1.29;94.76
77725;BME280;66892;53.236;6.550;2023-03-08T00:51:31;100015.84;;;-1.25;94.20
77725;BME280;66892;53.236;6.550;2023-03-08T00:53:57;100014.81;;;-1.30;94.20
77725;BME280;66892;53.236;6.550;2023-03-08T00:56:23;100008.81;;;-1.29;93.81
77725;BME280;66892;53.236;6.550;2023-03-08T00:58:49;100015.63;;;-1.32;94.33
77725;BME280;66892;53.236;6.550;2023-03-08T01:01:17;100017.94;;;-1.41;94.71
77725;BME280;66892;53.236;6.550;2023-03-08T01:03:43;100024.53;;;-1.51;95.00
77725;BME280;66892;53.236;6.550;2023-03-08T01:06:12;100020.19;;;-1.52;95.03
77725;BME280;66892;53.236;6.550;2023-03-08T01:08:39;100016.00;;;-1.47;94.58
77725;BME280;66892;53.236;6.550;2023-03-08T01:11:14;100018.59;;;-1.47;95.12
77725;BME280;66892;53.236;6.550;2023-03-08T01:13:40;100008.00;;;-1.54;94.75
77725;BME280;66892;53.236;6.550;2023-03-08T01:16:13;100007.13;;;-1.55;95.00
77725;BME280;66892;53.236;6.550;2023-03-08T01:18:39;99996.88;;;-1.50;94.79
77725;BME280;66892;53.236;6.550;2023-03-08T01:21:05;100003.69;;;-1.54;94.88
77725;BME280;66892;53.236;6.550;2023-03-08T01:23:33;100001.25;;;-1.49;94.02
77725;BME280;66892;53.236;6.550;2023-03-08T01:26:00;99996.88;;;-1.50;94.15
77725;BME280;66892;53.236;6.550;2023-03-08T01:28:26;99990.78;;;-1.52;94.08
77725;BME280;66892;53.236;6.550;2023-03-08T01:30:52;99990.53;;;-1.60;94.51
77725;BME280;66892;53.236;6.550;2023-03-08T01:33:19;99992.22;;;-1.62;93.80
77725;BME280;66892;53.236;6.550;2023-03-08T01:35:45;99993.88;;;-1.64;94.00
77725;BME280;66892;53.236;6.550;2023-03-08T01:38:11;99994.53;;;-1.71;94.27
77725;BME280;66892;53.236;6.550;2023-03-08T01:40:39;99992.72;;;-1.74;94.85
77725;BME280;66892;53.236;6.550;2023-03-08T01:43:13;99986.66;;;-1.74;94.88
77725;BME280;66892;53.236;6.550;2023-03-08T01:46:09;99980.50;;;-1.76;94.29
77725;BME280;66892;53.236;6.550;2023-03-08T01:48:39;99974.25;;;-1.83;94.72
77725;BME280;66892;53.236;6.550;2023-03-08T01:51:09;99974.22;;;-1.84;94.91
77725;BME280;66892;53.236;6.550;2023-03-08T01:53:38;99972.34;;;-1.90;94.68
77725;BME280;66892;53.236;6.550;2023-03-08T01:56:10;99969.63;;;-1.93;95.64
77725;BME280;66892;53.236;6.550;2023-03-08T01:58:38;99971.44;;;-1.90;94.88
77725;BME280;66892;53.236;6.550;2023-03-08T02:01:05;99975.03;;;-1.85;95.35
77725;BME280;66892;53.236;6.550;2023-03-08T02:03:31;99973.50;;;-1.80;94.82
77725;BME280;66892;53.236;6.550;2023-03-08T02:05:57;99966.44;;;-1.84;94.79
77725;BME280;66892;53.236;6.550;2023-03-08T02:08:23;99961.88;;;-1.93;94.61
77725;BME280;66892;53.236;6.550;2023-03-08T02:10:49;99961.91;;;-1.91;95.34
77725;BME280;66892;53.236;6.550;2023-03-08T02:13:18;99965.13;;;-1.98;95.16
77725;BME280;66892;53.236;6.550;2023-03-08T02:15:45;99957.59;;;-1.91;95.30
77725;BME280;66892;53.236;6.550;2023-03-08T02:18:11;99963.78;;;-1.87;95.45
77725;BME280;66892;53.236;6.550;2023-03-08T02:20:38;99955.13;;;-1.88;95.25
77725;BME280;66892;53.236;6.550;2023-03-08T02:23:10;99954.41;;;-1.82;94.71
77725;BME280;66892;53.236;6.550;2023-03-08T02:25:37;99945.09;;;-1.77;94.52
77725;BME280;66892;53.236;6.550;2023-03-08T02:28:04;99948.66;;;-1.74;94.39
77725;BME280;66892;53.236;6.550;2023-03-08T02:30:34;99950.22;;;-1.79;94.59
77725;BME280;66892;53.236;6.550;2023-03-08T02:33:00;99953.16;;;-1.68;94.18
77725;BME280;66892;53.236;6.550;2023-03-08T02:35:27;99954.41;;;-1.82;94.43
77725;BME280;66892;53.236;6.550;2023-03-08T02:37:53;99960.09;;;-1.94;95.21
77725;BME280;66892;53.236;6.550;2023-03-08T02:40:20;99955.53;;;-2.01;94.67
77725;BME280;66892;53.236;6.550;2023-03-08T02:42:46;99949.34;;;-2.06;94.79
77725;BME280;66892;53.236;6.550;2023-03-08T02:45:12;99951.63;;;-2.15;94.76
77725;BME280;66892;53.236;6.550;2023-03-08T02:47:38;99950.06;;;-2.10;95.02
77725;BME280;66892;53.236;6.550;2023-03-08T02:50:05;99952.16;;;-1.98;95.30
77725;BME280;66892;53.236;6.550;2023-03-08T02:52:32;99953.06;;;-1.98;95.85
77725;BME280;66892;53.236;6.550;2023-03-08T02:54:58;99954.75;;;-1.98;95.84
77725;BME280;66892;53.236;6.550;2023-03-08T02:57:25;99953.88;;;-1.99;95.97
77725;BME280;66892;53.236;6.550;2023-03-08T02:59:51;99939.91;;;-1.77;96.10
77725;BME280;66892;53.236;6.550;2023-03-08T03:02:17;99947.97;;;-1.68;94.92
77725;BME280;66892;53.236;6.550;2023-03-08T03:04:43;99952.34;;;-1.66;95.13
77725;BME280;66892;53.236;6.550;2023-03-08T03:07:09;99954.91;;;-1.67;94.30
77725;BME280;66892;53.236;6.550;2023-03-08T03:09:35;99950.50;;;-1.70;94.93
77725;BME280;66892;53.236;6.550;2023-03-08T03:12:02;99945.19;;;-1.74;95.13
77725;BME280;66892;53.236;6.550;2023-03-08T03:14:29;99944.13;;;-1.81;95.53
77725;BME280;66892;53.236;6.550;2023-03-08T03:16:55;99943.88;;;-1.60;94.34
77725;BME280;66892;53.236;6.550;2023-03-08T03:19:21;99943.94;;;-1.58;94.31
77725;BME280;66892;53.236;6.550;2023-03-08T03:21:47;99941.16;;;-1.65;93.81
77725;BME280;66892;53.236;6.550;2023-03-08T03:24:13;99940.19;;;-1.68;94.45
77725;BME280;66892;53.236;6.550;2023-03-08T03:26:39;99940.13;;;-1.70;94.04
77725;BME280;66892;53.236;6.550;2023-03-08T03:29:05;99937.41;;;-1.74;94.24
77725;BME280;66892;53.236;6.550;2023-03-08T03:31:33;99938.06;;;-1.80;94.66
77725;BME280;66892;53.236;6.550;2023-03-08T03:33:59;99934.53;;;-1.83;94.60
77725;BME280;66892;53.236;6.550;2023-03-08T03:36:25;99932.78;;;-1.84;95.14
77725;BME280;66892;53.236;6.550;2023-03-08T03:38:51;99935.56;;;-1.78;94.15
77725;BME280;66892;53.236;6.550;2023-03-08T03:41:20;99937.31;;;-1.77;94.87
77725;BME280;66892;53.236;6.550;2023-03-08T03:43:47;99940.56;;;-1.83;94.93
77725;BME280;66892;53.236;6.550;2023-03-08T03:46:16;99945.44;;;-1.93;94.48
77725;BME280;66892;53.236;6.550;2023-03-08T03:48:44;99942.75;;;-1.96;95.20
77725;BME280;66892;53.236;6.550;2023-03-08T03:51:11;99942.59;;;-2.01;95.24
77725;BME280;66892;53.236;6.550;2023-03-08T03:53:38;99940.69;;;-2.06;95.29
77725;BME280;66892;53.236;6.550;2023-03-08T03:56:06;99946.84;;;-2.03;95.36
77725;BME280;66892;53.236;6.550;2023-03-08T03:58:33;99948.28;;;-2.13;95.40
77725;BME280;66892;53.236;6.550;2023-03-08T04:00:59;99943.03;;;-2.14;95.11
77725;BME280;66892;53.236;6.550;2023-03-08T04:03:26;99946.78;;;-2.04;94.93
77725;BME280;66892;53.236;6.550;2023-03-08T04:05:53;99948.75;;;-1.97;94.64
77725;BME280;66892;53.236;6.550;2023-03-08T04:08:19;99947.75;;;-2.02;95.29
77725;BME280;66892;53.236;6.550;2023-03-08T04:10:45;99947.69;;;-2.04;95.31
77725;BME280;66892;53.236;6.550;2023-03-08T04:13:11;99953.66;;;-2.06;95.53
77725;BME280;66892;53.236;6.550;2023-03-08T04:15:37;99946.22;;;-1.96;94.79
77725;BME280;66892;53.236;6.550;2023-03-08T04:18:03;99950.47;;;-1.98;95.46
77725;BME280;66892;53.236;6.550;2023-03-08T04:20:29;99954.13;;;-1.91;95.37
77725;BME280;66892;53.236;6.550;2023-03-08T04:22:57;99950.66;;;-1.92;95.30
77725;BME280;66892;53.236;6.550;2023-03-08T04:25:23;99938.59;;;-1.91;95.39
77725;BME280;66892;53.236;6.550;2023-03-08T04:27:49;99938.50;;;-1.94;95.07
77725;BME280;66892;53.236;6.550;2023-03-08T04:30:15;99951.28;;;-1.99;95.77
77725;BME280;66892;53.236;6.550;2023-03-08T04:32:41;99945.16;;;-2.02;96.06
77725;BME280;66892;53.236;6.550;2023-03-08T04:35:08;99937.59;;;-1.95;95.75
77725;BME280;66892;53.236;6.550;2023-03-08T04:37:34;99939.13;;;-2.01;96.17
77725;BME280;66892;53.236;6.550;2023-03-08T04:40:04;99934.03;;;-1.98;96.27
77725;BME280;66892;53.236;6.550;2023-03-08T04:42:34;99934.78;;;-2.02;96.13
77725;BME280;66892;53.236;6.550;2023-03-08T04:45:00;99936.44;;;-2.04;95.73
77725;BME280;66892;53.236;6.550;2023-03-08T04:47:26;99932.88;;;-2.08;96.33
77725;BME280;66892;53.236;6.550;2023-03-08T04:49:52;99931.22;;;-2.06;95.44
77725;BME280;66892;53.236;6.550;2023-03-08T04:52:18;99923.34;;;-2.09;96.07
77725;BME280;66892;53.236;6.550;2023-03-08T04:54:44;99927.69;;;-2.08;96.66
77725;BME280;66892;53.236;6.550;2023-03-08T04:57:11;99926.75;;;-2.10;96.29
77725;BME280;66892;53.236;6.550;2023-03-08T04:59:37;99917.31;;;-2.08;96.23
77725;BME280;66892;53.236;6.550;2023-03-08T05:02:03;99912.22;;;-2.06;96.49
77725;BME280;66892;53.236;6.550;2023-03-08T05:04:29;99908.88;;;-2.02;95.84
77725;BME280;66892;53.236;6.550;2023-03-08T05:06:55;99910.63;;;-2.01;96.04
77725;BME280;66892;53.236;6.550;2023-03-08T05:09:21;99904.72;;;-1.97;96.72
77725;BME280;66892;53.236;6.550;2023-03-08T05:11:47;99903.03;;;-1.95;96.35
77725;BME280;66892;53.236;6.550;2023-03-08T05:14:14;99905.69;;;-1.94;96.60
77725;BME280;66892;53.236;6.550;2023-03-08T05:16:40;99903.00;;;-1.97;96.06
77725;BME280;66892;53.236;6.550;2023-03-08T05:19:06;99901.22;;;-1.99;96.69
77725;BME280;66892;53.236;6.550;2023-03-08T05:21:32;99894.19;;;-2.02;96.30
77725;BME280;66892;53.236;6.550;2023-03-08T05:23:59;99891.59;;;-2.02;96.51
77725;BME280;66892;53.236;6.550;2023-03-08T05:26:25;99887.22;;;-2.04;96.73
77725;BME280;66892;53.236;6.550;2023-03-08T05:28:51;99889.81;;;-2.04;96.20
77725;BME280;66892;53.236;6.550;2023-03-08T05:31:20;99878.63;;;-2.03;96.19
77725;BME280;66892;53.236;6.550;2023-03-08T05:33:48;99874.25;;;-2.06;96.48
77725;BME280;66892;53.236;6.550;2023-03-08T05:36:16;99880.19;;;-2.08;96.13
77725;BME280;66892;53.236;6.550;2023-03-08T05:38:42;99874.19;;;-2.07;96.91
77725;BME280;66892;53.236;6.550;2023-03-08T05:41:12;99874.09;;;-2.10;96.57
77725;BME280;66892;53.236;6.550;2023-03-08T05:43:38;99882.94;;;-2.04;96.29
77725;BME280;66892;53.236;6.550;2023-03-08T05:46:07;99882.31;;;-1.95;96.66
77725;BME280;66892;53.236;6.550;2023-03-08T05:48:35;99881.56;;;-1.93;96.29
77725;BME280;66892;53.236;6.550;2023-03-08T05:51:04;99884.81;;;-1.98;95.91
77725;BME280;66892;53.236;6.550;2023-03-08T05:53:30;99881.31;;;-2.00;96.16
77725;BME280;66892;53.236;6.550;2023-03-08T05:55:56;99875.31;;;-1.99;96.25
77725;BME280;66892;53.236;6.550;2023-03-08T05:58:22;99872.56;;;-2.04;96.26
77725;BME280;66892;53.236;6.550;2023-03-08T06:00:48;99876.31;;;-1.94;96.88
77725;BME280;66892;53.236;6.550;2023-03-08T06:03:14;99867.72;;;-1.93;96.37
77725;BME280;66892;53.236;6.550;2023-03-08T06:05:41;99872.13;;;-1.91;96.56
77725;BME280;66892;53.236;6.550;2023-03-08T06:08:07;99874.69;;;-1.91;96.08
77725;BME280;66892;53.236;6.550;2023-03-08T06:10:34;99867.66;;;-1.95;96.46
77725;BME280;66892;53.236;6.550;2023-03-08T06:13:00;99869.38;;;-1.95;96.30
77725;BME280;66892;53.236;6.550;2023-03-08T06:15:26;99858.16;;;-1.96;96.12
77725;BME280;66892;53.236;6.550;2023-03-08T06:17:52;99858.09;;;-1.97;96.30
77725;BME280;66892;53.236;6.550;2023-03-08T06:20:18;99850.22;;;-2.00;96.05
77725;BME280;66892;53.236;6.550;2023-03-08T06:22:46;99850.31;;;-1.97;95.69
77725;BME280;66892;53.236;6.550;2023-03-08T06:25:12;99841.66;;;-1.98;96.09
77725;BME280;66892;53.236;6.550;2023-03-08T06:27:38;99840.66;;;-2.03;95.99
77725;BME280;66892;53.236;6.550;2023-03-08T06:30:05;99830.31;;;-2.03;96.19
77725;BME280;66892;53.236;6.550;2023-03-08T06:32:31;99826.00;;;-2.02;96.56
77725;BME280;66892;53.236;6.550;2023-03-08T06:34:57;99828.72;;;-1.98;96.06
77725;BME280;66892;53.236;6.550;2023-03-08T06:37:23;99827.88;;;-1.97;96.25
77725;BME280;66892;53.236;6.550;2023-03-08T06:39:50;99841.03;;;-1.91;95.67
77725;BME280;66892;53.236;6.550;2023-03-08T06:42:16;99837.69;;;-1.87;95.70
77725;BME280;66892;53.236;6.550;2023-03-08T06:44:42;99829.84;;;-1.90;96.27
77725;BME280;66892;53.236;6.550;2023-03-08T06:47:08;99837.69;;;-1.87;95.56
77725;BME280;66892;53.236;6.550;2023-03-08T06:49:34;99826.53;;;-1.84;95.89
77725;BME280;66892;53.236;6.550;2023-03-08T06:52:00;99829.38;;;-1.77;95.60
77725;BME280;66892;53.236;6.550;2023-03-08T06:54:26;99820.81;;;-1.73;95.84
77725;BME280;66892;53.236;6.550;2023-03-08T06:56:53;99824.38;;;-1.71;95.42
77725;BME280;66892;53.236;6.550;2023-03-08T06:59:19;99822.78;;;-1.66;94.91
77725;BME280;66892;53.236;6.550;2023-03-08T07:01:46;99814.34;;;-1.58;95.63
77725;BME280;66892;53.236;6.550;2023-03-08T07:04:12;99817.03;;;-1.54;95.69
77725;BME280;66892;53.236;6.550;2023-03-08T07:06:38;99825.03;;;-1.48;95.06
77725;BME280;66892;53.236;6.550;2023-03-08T07:09:04;99829.50;;;-1.42;95.06
77725;BME280;66892;53.236;6.550;2023-03-08T07:11:30;99834.84;;;-1.36;94.96
77725;BME280;66892;53.236;6.550;2023-03-08T07:13:58;99844.56;;;-1.28;93.78
77725;BME280;66892;53.236;6.550;2023-03-08T07:16:24;99838.00;;;-1.17;94.26
77725;BME280;66892;53.236;6.550;2023-03-08T07:18:50;99839.06;;;-1.09;93.88
77725;BME280;66892;53.236;6.550;2023-03-08T07:21:16;99840.97;;;-1.01;93.77
77725;BME280;66892;53.236;6.550;2023-03-08T07:23:42;99841.22;;;-0.92;93.31
77725;BME280;66892;53.236;6.550;2023-03-08T07:26:09;99837.00;;;-0.89;92.06
77725;BME280;66892;53.236;6.550;2023-03-08T07:28:35;99836.09;;;-0.89;92.07
77725;BME280;66892;53.236;6.550;2023-03-08T07:31:03;99834.38;;;-0.90;92.39
77725;BME280;66892;53.236;6.550;2023-03-08T07:33:29;99836.09;;;-0.89;91.86
77725;BME280;66892;53.236;6.550;2023-03-08T07:35:58;99830.09;;;-0.88;92.52
77725;BME280;66892;53.236;6.550;2023-03-08T07:38:26;99829.28;;;-0.86;92.29
77725;BME280;66892;53.236;6.550;2023-03-08T07:40:53;99830.25;;;-0.82;91.78
77725;BME280;66892;53.236;6.550;2023-03-08T07:43:19;99825.25;;;-0.75;92.73
77725;BME280;66892;53.236;6.550;2023-03-08T07:45:45;99825.41;;;-0.69;92.82
77725;BME280;66892;53.236;6.550;2023-03-08T07:48:13;99829.06;;;-0.61;92.79
77725;BME280;66892;53.236;6.550;2023-03-08T07:50:39;99822.41;;;-0.49;92.53
77725;BME280;66892;53.236;6.550;2023-03-08T07:53:05;99828.72;;;-0.38;92.94
77725;BME280;66892;53.236;6.550;2023-03-08T07:55:32;99829.13;;;-0.22;91.00
77725;BME280;66892;53.236;6.550;2023-03-08T07:57:59;99825.91;;;-0.13;90.37
77725;BME280;66892;53.236;6.550;2023-03-08T08:00:25;99823.44;;;-0.06;91.24
77725;BME280;66892;53.236;6.550;2023-03-08T08:02:51;99818.38;;;0.00;91.36
77725;BME280;66892;53.236;6.550;2023-03-08T08:05:20;99821.06;;;0.04;89.47
77725;BME280;66892;53.236;6.550;2023-03-08T08:07:49;99824.66;;;0.09;90.42
77725;BME280;66892;53.236;6.550;2023-03-08T08:10:15;99810.81;;;0.10;89.75
77725;BME280;66892;53.236;6.550;2023-03-08T08:12:41;99822.19;;;0.16;89.42
77725;BME280;66892;53.236;6.550;2023-03-08T08:15:08;99820.59;;;0.23;89.77
77725;BME280;66892;53.236;6.550;2023-03-08T08:17:34;99821.59;;;0.28;89.39
77725;BME280;66892;53.236;6.550;2023-03-08T08:20:00;99819.22;;;0.38;89.66
77725;BME280;66892;53.236;6.550;2023-03-08T08:22:27;99819.19;;;0.37;88.44
77725;BME280;66892;53.236;6.550;2023-03-08T08:24:53;99820.03;;;0.36;88.26
77725;BME280;66892;53.236;6.550;2023-03-08T08:27:19;99821.03;;;0.42;89.48
77725;BME280;66892;53.236;6.550;2023-03-08T08:29:45;99821.13;;;0.47;88.87
77725;BME280;66892;53.236;6.550;2023-03-08T08:32:14;99818.69;;;0.55;89.17
77725;BME280;66892;53.236;6.550;2023-03-08T08:34:40;99824.84;;;0.60;87.73
77725;BME280;66892;53.236;6.550;2023-03-08T08:37:06;99818.94;;;0.68;88.02
77725;BME280;66892;53.236;6.550;2023-03-08T08:39:33;99818.41;;;0.84;88.30
77725;BME280;66892;53.236;6.550;2023-03-08T08:41:59;99815.06;;;0.91;86.96
77725;BME280;66892;53.236;6.550;2023-03-08T08:44:25;99816.16;;;1.02;87.28
77725;BME280;66892;53.236;6.550;2023-03-08T08:46:51;99808.50;;;1.12;86.38
77725;BME280;66892;53.236;6.550;2023-03-08T08:49:17;99810.38;;;1.19;87.81
77725;BME280;66892;53.236;6.550;2023-03-08T08:51:43;99806.09;;;1.24;87.13
77725;BME280;66892;53.236;6.550;2023-03-08T08:54:09;99810.53;;;1.29;87.36
77725;BME280;66892;53.236;6.550;2023-03-08T08:56:37;99805.56;;;1.43;86.89
77725;BME280;66892;53.236;6.550;2023-03-08T08:59:09;99805.72;;;1.52;87.38
77725;BME280;66892;53.236;6.550;2023-03-08T09:01:35;99803.28;;;1.63;86.04
77725;BME280;66892;53.236;6.550;2023-03-08T09:04:04;99805.91;;;1.64;85.78
77725;BME280;66892;53.236;6.550;2023-03-08T09:06:30;99800.81;;;1.72;86.22
77725;BME280;66892;53.236;6.550;2023-03-08T09:08:57;99792.25;;;1.80;85.64
77725;BME280;66892;53.236;6.550;2023-03-08T09:11:24;99788.09;;;1.91;86.03
77725;BME280;66892;53.236;6.550;2023-03-08T09:13:53;99784.63;;;1.92;85.44
77725;BME280;66892;53.236;6.550;2023-03-08T09:16:21;99789.00;;;1.95;84.49
77725;BME280;66892;53.236;6.550;2023-03-08T09:18:47;99784.69;;;1.97;84.63
77725;BME280;66892;53.236;6.550;2023-03-08T09:21:14;99787.41;;;2.04;84.10
77725;BME280;66892;53.236;6.550;2023-03-08T09:23:40;99783.16;;;2.11;82.67
77725;BME280;66892;53.236;6.550;2023-03-08T09:26:07;99784.09;;;2.19;83.73
77725;BME280;66892;53.236;6.550;2023-03-08T09:28:33;99776.41;;;2.27;83.16
77725;BME280;66892;53.236;6.550;2023-03-08T09:31:05;99774.66;;;2.29;83.27
77725;BME280;66892;53.236;6.550;2023-03-08T09:33:34;99778.28;;;2.37;82.57
77725;BME280;66892;53.236;6.550;2023-03-08T09:36:01;99776.50;;;2.36;82.29
77725;BME280;66892;53.236;6.550;2023-03-08T09:38:27;99770.63;;;2.52;80.73
77725;BME280;66892;53.236;6.550;2023-03-08T09:41:00;99773.28;;;2.58;79.78
77725;BME280;66892;53.236;6.550;2023-03-08T09:43:43;99767.22;;;2.59;81.17
77725;BME280;66892;53.236;6.550;2023-03-08T09:46:13;99762.91;;;2.64;80.12
77725;BME280;66892;53.236;6.550;2023-03-08T09:48:45;99767.25;;;2.63;80.00
77725;BME280;66892;53.236;6.550;2023-03-08T09:51:13;99765.56;;;2.65;80.42
77725;BME280;66892;53.236;6.550;2023-03-08T09:53:47;99762.97;;;2.69;80.61
77725;BME280;66892;53.236;6.550;2023-03-08T09:56:19;99764.81;;;2.76;79.81
77725;BME280;66892;53.236;6.550;2023-03-08T09:58:48;99761.44;;;2.86;80.94
77725;BME280;66892;53.236;6.550;2023-03-08T10:01:23;99760.84;;;3.14;78.91
77725;BME280;66892;53.236;6.550;2023-03-08T10:06:44;99760.09;;;3.27;78.93
77725;BME280;66892;53.236;6.550;2023-03-08T10:09:22;99760.19;;;3.44;78.24
77725;BME280;66892;53.236;6.550;2023-03-08T10:11:54;99759.34;;;3.45;76.52
77725;BME280;66892;53.236;6.550;2023-03-08T10:14:29;99753.25;;;3.46;76.58
77725;BME280;66892;53.236;6.550;2023-03-08T10:17:00;99756.78;;;3.51;75.82
77725;BME280;66892;53.236;6.550;2023-03-08T10:19:33;99757.59;;;3.47;75.83
77725;BME280;66892;53.236;6.550;2023-03-08T10:22:14;99746.28;;;3.45;77.95
77725;BME280;66892;53.236;6.550;2023-03-08T10:24:45;99745.53;;;3.59;77.07
77725;BME280;66892;53.236;6.550;2023-03-08T10:27:19;99743.88;;;3.75;77.93
77725;BME280;66892;53.236;6.550;2023-03-08T10:29:48;99738.69;;;3.83;75.81
77725;BME280;66892;53.236;6.550;2023-03-08T10:32:16;99740.50;;;3.94;75.41
77725;BME280;66892;53.236;6.550;2023-03-08T10:34:42;99734.41;;;3.94;75.24
77725;BME280;66892;53.236;6.550;2023-03-08T10:37:08;99730.88;;;3.89;75.17
77725;BME280;66892;53.236;6.550;2023-03-08T10:39:35;99726.56;;;3.98;75.22
77725;BME280;66892;53.236;6.550;2023-03-08T10:42:06;99721.44;;;4.13;74.54
77725;BME280;66892;53.236;6.550;2023-03-08T10:44:41;99718.00;;;4.30;75.88
77725;BME280;66892;53.236;6.550;2023-03-08T10:47:19;99719.72;;;4.23;73.20
77725;BME280;66892;53.236;6.550;2023-03-08T10:49:46;99725.63;;;3.89;70.07
77725;BME280;66892;53.236;6.550;2023-03-08T10:52:24;99716.19;;;4.10;69.99
77725;BME280;66892;53.236;6.550;2023-03-08T10:54:59;99721.41;;;4.07;68.39
77725;BME280;66892;53.236;6.550;2023-03-08T10:57:26;99718.88;;;4.32;69.05
77725;BME280;66892;53.236;6.550;2023-03-08T10:59:53;99718.03;;;4.33;69.58
77725;BME280;66892;53.236;6.550;2023-03-08T11:02:20;99718.81;;;4.18;68.28
77725;BME280;66892;53.236;6.550;2023-03-08T11:04:51;99707.34;;;3.87;67.19
77725;BME280;66892;53.236;6.550;2023-03-08T11:07:20;99718.75;;;4.00;67.96
77725;BME280;66892;53.236;6.550;2023-03-08T11:09:48;99709.22;;;4.11;67.59
77725;BME280;66892;53.236;6.550;2023-03-08T11:12:21;99706.63;;;4.24;67.81
77725;BME280;66892;53.236;6.550;2023-03-08T11:14:49;99701.44;;;4.37;67.68
77725;BME280;66892;53.236;6.550;2023-03-08T11:17:18;99694.44;;;4.27;64.02
77725;BME280;66892;53.236;6.550;2023-03-08T11:19:58;99698.75;;;4.18;64.39
77725;BME280;66892;53.236;6.550;2023-03-08T11:22:37;99692.72;;;4.35;66.49
77725;BME280;66892;53.236;6.550;2023-03-08T11:25:18;99695.38;;;4.50;66.45
77725;BME280;66892;53.236;6.550;2023-03-08T11:27:57;99695.44;;;4.71;65.86
77725;BME280;66892;53.236;6.550;2023-03-08T11:30:31;99695.38;;;4.51;65.53
77725;BME280;66892;53.236;6.550;2023-03-08T11:33:15;99693.66;;;4.52;65.35
77725;BME280;66892;53.236;6.550;2023-03-08T11:35:51;99702.38;;;4.55;64.52
77725;BME280;66892;53.236;6.550;2023-03-08T11:38:23;99694.56;;;4.79;67.15
77725;BME280;66892;53.236;6.550;2023-03-08T11:40:57;99696.25;;;4.43;65.41
77725;BME280;66892;53.236;6.550;2023-03-08T11:43:41;99690.19;;;4.62;67.68
77725;BME280;66892;53.236;6.550;2023-03-08T11:46:16;99690.19;;;4.74;66.61
77725;BME280;66892;53.236;6.550;2023-03-08T11:48:54;99681.47;;;4.89;67.58
77725;BME280;66892;53.236;6.550;2023-03-08T11:51:29;99678.00;;;5.05;64.46
77725;BME280;66892;53.236;6.550;2023-03-08T11:54:10;99673.63;;;5.20;63.93
77725;BME280;66892;53.236;6.550;2023-03-08T11:56:42;99682.31;;;5.63;64.09
77725;BME280;66892;53.236;6.550;2023-03-08T11:59:16;99687.59;;;5.62;62.81
77725;BME280;66892;53.236;6.550;2023-03-08T12:01:47;99689.28;;;5.81;63.55
77725;BME280;66892;53.236;6.550;2023-03-08T12:04:18;99678.75;;;6.07;62.19
77725;BME280;66892;53.236;6.550;2023-03-08T12:06:46;99687.53;;;5.72;59.69
77725;BME280;66892;53.236;6.550;2023-03-08T12:09:18;99684.97;;;5.62;57.60
77725;BME280;66892;53.236;6.550;2023-03-08T12:11:52;99693.72;;;5.46;57.84
77725;BME280;66892;53.236;6.550;2023-03-08T12:14:21;99691.97;;;5.58;60.73
77725;BME280;66892;53.236;6.550;2023-03-08T12:16:51;99691.94;;;5.54;58.99
77725;BME280;66892;53.236;6.550;2023-03-08T12:19:25;99696.31;;;5.53;61.03
77725;BME280;66892;53.236;6.550;2023-03-08T12:22:01;99693.72;;;5.30;58.86
77725;BME280;66892;53.236;6.550;2023-03-08T12:24:40;99692.88;;;5.19;58.73
77725;BME280;66892;53.236;6.550;2023-03-08T12:27:14;99684.09;;;4.83;59.38
77725;BME280;66892;53.236;6.550;2023-03-08T12:29:46;99685.84;;;4.82;58.57
77725;BME280;66892;53.236;6.550;2023-03-08T12:32:16;99685.88;;;5.00;62.12
77725;BME280;66892;53.236;6.550;2023-03-08T12:34:44;99678.88;;;5.14;59.89
77725;BME280;66892;53.236;6.550;2023-03-08T12:37:21;99681.50;;;5.28;57.05
77725;BME280;66892;53.236;6.550;2023-03-08T12:39:55;99674.47;;;5.44;57.28
77725;BME280;66892;53.236;6.550;2023-03-08T12:42:32;99672.66;;;5.91;60.04
77725;BME280;66892;53.236;6.550;2023-03-08T12:45:25;99676.19;;;5.63;56.10
77725;BME280;66892;53.236;6.550;2023-03-08T12:48:00;99672.66;;;5.76;55.46
77725;BME280;66892;53.236;6.550;2023-03-08T12:50:39;99670.84;;;6.10;55.24
77725;BME280;66892;53.236;6.550;2023-03-08T12:53:21;99672.63;;;6.02;55.08
77725;BME280;66892;53.236;6.550;2023-03-08T12:55:59;99656.06;;;5.69;55.35
77725;BME280;66892;53.236;6.550;2023-03-08T12:58:25;99668.31;;;5.73;55.78
77725;BME280;66892;53.236;6.550;2023-03-08T13:00:57;99671.78;;;5.80;54.41
77725;BME280;66892;53.236;6.550;2023-03-08T13:03:27;99670.97;;;5.57;54.79
77725;BME280;66892;53.236;6.550;2023-03-08T13:05:54;99670.13;;;5.38;54.99
77725;BME280;66892;53.236;6.550;2023-03-08T13:08:30;99660.50;;;5.51;54.83
77725;BME280;66892;53.236;6.550;2023-03-08T13:11:08;99654.34;;;5.59;56.67
77725;BME280;66892;53.236;6.550;2023-03-08T13:13:44;99650.81;;;5.80;56.13